Time;durP1;ratioP1;P1;durP2;ratioP2;P2;SDS_P1;SDS_P2;PMS_P1;PMS_P2;Temp;Humidity;BMP_temperature;BMP_pressure;BME280_temperature;BME280_humidity;BME280_pressure;Samples;Min_cycle;Max_cycle;Signal;HPM_P1;HPM_P2
2021/11/09 07:01:34;;;;;;;538.95;19.52;;;11.80;99.90;;;;;;5320612;23;20070;-82
2021/11/09 07:04:01;;;;;;;409.43;17.23;;;11.80;99.90;;;;;;4878255;29;20053;-82
2021/11/09 07:06:28;;;;;;;365.75;15.93;;;11.80;99.90;;;;;;4875870;29;20493;-79
2021/11/09 07:08:55;;;;;;;522.90;19.02;;;11.80;99.90;;;;;;4871099;29;20052;-81
2021/11/09 07:11:22;;;;;;;639.22;22.35;;;11.80;99.90;;;;;;4866948;29;20062;-80
2021/11/09 07:13:49;;;;;;;424.70;17.50;;;11.80;99.90;;;;;;4873503;29;20470;-81
2021/11/09 07:16:16;;;;;;;286.73;15.13;;;11.80;99.90;;;;;;4875074;29;20045;-83
2021/11/09 07:18:44;;;;;;;420.45;17.67;;;11.80;99.90;;;;;;4875980;29;20068;-81
2021/11/09 07:21:10;;;;;;;491.75;19.13;;;11.80;99.90;;;;;;4876859;29;20140;-80
2021/11/09 07:23:37;;;;;;;460.17;18.70;;;11.80;99.90;;;;;;4877867;29;20053;-81
2021/11/09 07:26:04;;;;;;;458.20;17.33;;;11.80;99.90;;;;;;4878032;29;20516;-81
2021/11/09 07:28:31;;;;;;;393.00;16.38;;;11.80;99.90;;;;;;4878252;29;20052;-82
2021/11/09 07:31:01;;;;;;;420.33;17.10;;;11.80;99.90;;;;;;4878104;29;20491;-82
2021/11/09 07:33:29;;;;;;;342.02;14.90;;;11.80;99.90;;;;;;4877250;29;20619;-81
2021/11/09 07:35:57;;;;;;;181.30;13.50;;;11.90;99.90;;;;;;4877174;29;20053;-82
2021/11/09 07:38:25;;;;;;;387.55;16.20;;;11.90;99.90;;;;;;4876761;29;20105;-83
2021/11/09 07:40:52;;;;;;;362.08;17.63;;;11.90;99.90;;;;;;4876706;29;20053;-82
2021/11/09 07:43:19;;;;;;;178.55;13.38;;;11.90;99.90;;;;;;4876818;29;20068;-82
2021/11/09 07:45:47;;;;;;;331.77;16.88;;;11.90;99.90;;;;;;4876356;29;20101;-82
2021/11/09 07:48:14;;;;;;;294.27;16.92;;;11.90;99.90;;;;;;4876079;29;20084;-81
2021/11/09 07:50:41;;;;;;;444.45;20.98;;;11.90;99.90;;;;;;4876732;29;20093;-82
2021/11/09 07:53:14;;;;;;;334.40;19.17;;;11.90;99.90;;;;;;4875745;29;20114;-82
2021/11/09 07:56:12;;;;;;;291.77;19.00;;;11.90;99.90;;;;;;4876024;29;20045;-82
2021/11/09 07:58:46;;;;;;;240.10;18.75;;;11.90;99.90;;;;;;4872780;29;20105;-81
2021/11/09 08:01:17;;;;;;;367.33;19.88;;;12.00;99.90;;;;;;4874602;29;20495;-81
2021/11/09 08:06:43;;;;;;;164.90;15.48;;;12.00;99.90;;;;;;4894540;29;20398;-82
2021/11/09 08:09:30;;;;;;;206.50;15.80;;;12.00;99.90;;;;;;4894159;29;20490;-81
2021/11/09 08:12:01;;;;;;;83.90;12.73;;;12.00;99.90;;;;;;4892370;29;20040;-81
2021/11/09 08:14:29;;;;;;;81.60;14.13;;;12.00;99.90;;;;;;4893182;29;20048;-82
2021/11/09 08:16:56;;;;;;;75.13;14.25;;;12.00;99.90;;;;;;4893166;29;20425;-82
2021/11/09 08:19:24;;;;;;;55.55;12.93;;;12.00;99.90;;;;;;4892475;29;20529;-82
2021/11/09 08:21:55;;;;;;;57.00;12.15;;;12.00;99.90;;;;;;4893701;29;20542;-81
2021/11/09 08:24:23;;;;;;;52.38;12.50;;;12.00;99.90;;;;;;4892368;29;20054;-82
2021/11/09 08:26:53;;;;;;;93.53;13.18;;;12.00;99.90;;;;;;4893566;29;20044;-82
2021/11/09 08:29:29;;;;;;;31.50;11.80;;;12.00;99.90;;;;;;4892380;29;20084;-82
2021/11/09 08:31:59;;;;;;;33.83;11.82;;;12.00;99.90;;;;;;4891361;29;20084;-80
2021/11/09 08:34:28;;;;;;;31.33;12.20;;;12.10;99.90;;;;;;4892523;29;20052;-81
2021/11/09 08:36:56;;;;;;;31.60;11.98;;;12.10;99.90;;;;;;4893783;29;20092;-81
2021/11/09 08:39:32;;;;;;;39.17;13.15;;;12.10;99.90;;;;;;4891095;29;26508;-80
2021/11/09 08:45:01;;;;;;;25.70;12.50;;;12.10;99.90;;;;;;4889856;29;20513;-82
2021/11/09 08:47:32;;;;;;;30.10;12.85;;;12.20;99.90;;;;;;4891620;29;20096;-80
2021/11/09 08:49:59;;;;;;;41.85;13.30;;;12.20;99.90;;;;;;4893429;29;20048;-81
2021/11/09 08:52:30;;;;;;;33.03;13.18;;;12.20;99.90;;;;;;4891873;29;20076;-81
2021/11/09 08:55:21;;;;;;;29.38;13.23;;;12.30;99.90;;;;;;4893071;29;20064;-81
2021/11/09 08:58:03;;;;;;;30.25;12.52;;;12.30;99.90;;;;;;4891854;29;20466;-80
2021/11/09 09:06:02;;;;;;;49.63;14.10;;;12.40;99.90;;;;;;4892421;29;20155;-82
2021/11/09 09:08:34;;;;;;;57.35;13.48;;;12.40;99.90;;;;;;4892597;29;20044;-80
2021/11/09 09:11:07;;;;;;;37.45;12.70;;;12.40;99.90;;;;;;4890400;29;20051;-80
2021/11/09 09:13:34;;;;;;;36.17;12.90;;;12.40;99.90;;;;;;4892658;29;20132;-80
2021/11/09 09:16:02;;;;;;;32.10;12.77;;;12.40;99.90;;;;;;4892574;29;20088;-78
2021/11/09 09:18:29;;;;;;;54.47;13.60;;;12.40;99.90;;;;;;4893206;29;20058;-80
2021/11/09 09:20:59;;;;;;;32.45;13.63;;;12.40;99.90;;;;;;4892761;29;20498;-80
2021/11/09 09:23:32;;;;;;;26.17;13.68;;;12.40;99.90;;;;;;4891888;29;20108;-81
2021/11/09 09:56:06;;;;;;;8.05;5.78;;;12.60;99.90;;;;;;4825678;29;20118;-80
2021/11/09 09:58:33;;;;;;;9.70;6.13;;;12.70;99.90;;;;;;4825338;29;20115;-81
2021/11/09 10:01:00;;;;;;;10.68;7.05;;;12.70;99.90;;;;;;4822169;29;20543;-82
2021/11/09 10:03:40;;;;;;;13.48;8.13;;;12.70;99.90;;;;;;4820775;29;20589;-82
2021/11/09 10:06:08;;;;;;;14.38;9.27;;;12.80;99.90;;;;;;4820738;29;20050;-81
2021/11/09 10:08:51;;;;;;;13.55;8.90;;;12.80;99.90;;;;;;4821398;29;20073;-81
2021/11/09 10:11:35;;;;;;;13.23;8.93;;;12.80;99.90;;;;;;4819998;29;20286;-81
2021/11/09 10:14:07;;;;;;;12.10;8.68;;;12.90;99.90;;;;;;4821190;29;20055;-81
2021/11/09 10:16:38;;;;;;;14.25;8.80;;;12.90;99.90;;;;;;4820785;29;20575;-81
2021/11/09 10:19:06;;;;;;;13.00;8.45;;;12.90;99.90;;;;;;4805603;29;20046;-80
2021/11/09 10:21:41;;;;;;;15.03;9.70;;;12.90;99.90;;;;;;4821614;29;20493;-81
2021/11/09 10:24:37;;;;;;;12.38;7.93;;;12.90;99.90;;;;;;4820200;29;20074;-80
2021/11/09 10:27:13;;;;;;;10.00;7.45;;;13.00;99.90;;;;;;4809179;29;20058;-81
2021/11/09 10:29:42;;;;;;;10.57;7.25;;;13.10;99.90;;;;;;4820404;29;20051;-81
2021/11/09 10:32:15;;;;;;;8.60;6.55;;;13.10;99.90;;;;;;4837106;29;20183;-81
2021/11/09 10:34:43;;;;;;;8.77;6.70;;;13.10;99.90;;;;;;4895969;29;20104;-80
2021/11/09 10:37:18;;;;;;;8.32;6.30;;;13.20;99.90;;;;;;4881698;29;20053;-80
2021/11/09 10:40:11;;;;;;;7.55;5.55;;;13.20;99.90;;;;;;4895195;29;20128;-80
2021/11/09 10:42:41;;;;;;;6.72;5.43;;;13.20;99.90;;;;;;4893592;29;20414;-81
2021/11/09 10:45:11;;;;;;;7.05;5.32;;;13.20;99.90;;;;;;4875356;29;20517;-81
2021/11/09 10:47:41;;;;;;;8.68;5.85;;;13.30;99.90;;;;;;4896623;29;20110;-81
2021/11/09 10:50:18;;;;;;;8.27;6.20;;;13.30;99.90;;;;;;4896182;29;20053;-81
2021/11/09 10:52:45;;;;;;;6.55;5.13;;;13.40;99.90;;;;;;4896457;29;20544;-80
2021/11/09 10:55:27;;;;;;;5.95;5.35;;;13.40;99.90;;;;;;4896096;29;20049;-81
2021/11/09 11:06:10;;;;;;;6.13;4.53;;;13.50;99.90;;;;;;4835328;29;20058;-81
2021/11/09 11:08:38;;;;;;;;;;;13.60;99.90;;;;;;4833417;29;20102;-82
2021/11/09 11:11:27;;;;;;;7.15;5.45;;;13.50;99.90;;;;;;4829757;29;19947;-81
2021/11/09 11:13:55;;;;;;;;;;;13.60;99.90;;;;;;4838620;29;20136;-80
2021/11/09 11:16:26;;;;;;;7.80;5.80;;;13.60;99.90;;;;;;4836024;29;19924;-81
2021/11/09 11:18:55;;;;;;;9.65;6.55;;;13.60;99.90;;;;;;4835328;29;20071;-80
2021/11/09 11:21:25;;;;;;;7.68;6.15;;;13.60;99.90;;;;;;4836750;29;20793;-82
2021/11/09 11:23:53;;;;;;;7.60;6.22;;;13.70;99.90;;;;;;4841085;29;20072;-81
2021/11/09 11:26:22;;;;;;;8.80;5.75;;;13.70;99.90;;;;;;4849134;29;20073;-81
2021/11/09 11:28:52;;;;;;;7.65;6.45;;;13.70;99.90;;;;;;4836716;29;20602;-81
2021/11/09 11:31:20;;;;;;;7.10;5.60;;;13.80;99.90;;;;;;4833571;29;20050;-81
2021/11/09 11:33:49;;;;;;;7.28;5.07;;;13.90;99.90;;;;;;4835379;29;20092;-81
2021/11/09 11:36:16;;;;;;;9.13;6.00;;;13.90;99.90;;;;;;4836612;29;20630;-81
2021/11/09 11:38:45;;;;;;;8.40;5.68;;;13.90;99.90;;;;;;4886158;29;20510;-81
2021/11/09 11:41:14;;;;;;;10.15;7.03;;;14.00;99.90;;;;;;4892713;29;20072;-81
2021/11/09 11:43:47;;;;;;;11.32;7.03;;;14.00;99.90;;;;;;4876998;29;20068;-80
2021/11/09 11:46:35;;;;;;;9.73;6.55;;;14.00;99.90;;;;;;4891459;29;20073;-82
2021/11/09 11:49:40;;;;;;;9.02;6.43;;;14.00;99.90;;;;;;4892263;29;20087;-80
2021/11/09 11:52:25;;;;;;;8.60;7.13;;;14.00;99.90;;;;;;4854524;29;20048;-80
2021/11/09 11:55:09;;;;;;;8.52;5.80;;;14.00;99.90;;;;;;4893802;29;20044;-81
2021/11/09 11:57:52;;;;;;;9.52;6.63;;;14.00;99.90;;;;;;4893852;29;20044;-82
2021/11/09 12:00:28;;;;;;;10.40;7.15;;;14.00;99.90;;;;;;4893674;29;20581;-81
2021/11/09 12:02:56;;;;;;;8.52;7.10;;;14.00;99.90;;;;;;4892248;29;20056;-81
2021/11/09 12:05:54;;;;;;;10.00;6.22;;;14.00;99.90;;;;;;4892297;29;20105;-81
2021/11/09 12:08:33;;;;;;;8.65;6.80;;;14.00;99.90;;;;;;4815955;29;20115;-81
2021/11/09 12:11:01;;;;;;;8.50;5.72;;;14.00;99.90;;;;;;4815152;29;20054;-80
2021/11/09 12:13:29;;;;;;;9.35;5.72;;;14.00;99.90;;;;;;4817290;29;20081;-81
2021/11/09 12:16:01;;;;;;;9.68;6.75;;;14.10;99.90;;;;;;4815431;29;20061;-80
2021/11/09 12:18:28;;;;;;;10.25;5.97;;;14.10;99.90;;;;;;4814470;29;20050;-82
2021/11/09 12:21:01;;;;;;;7.32;5.07;;;14.10;99.90;;;;;;4814615;29;20055;-80
2021/11/09 12:23:32;;;;;;;6.60;5.20;;;14.10;99.90;;;;;;4816975;29;20050;-80
2021/11/09 12:26:50;;;;;;;8.70;5.80;;;14.10;99.90;;;;;;4802956;29;20058;-81
2021/11/09 12:29:35;;;;;;;7.50;5.70;;;14.10;99.90;;;;;;4815189;29;20127;-81
2021/11/09 12:32:20;;;;;;;8.68;5.80;;;14.10;99.90;;;;;;4814617;29;20566;-81
2021/11/09 12:35:05;;;;;;;9.23;5.95;;;14.10;99.90;;;;;;4798734;29;20155;-82
2021/11/09 12:37:41;;;;;;;11.20;4.60;;;14.10;99.90;;;;;;4812213;29;20057;-81
2021/11/09 12:40:35;;;;;;;9.80;3.97;;;14.10;99.90;;;;;;4814775;29;20064;-81
2021/11/09 12:43:27;;;;;;;7.70;4.80;;;14.10;99.90;;;;;;4815401;29;20054;-80
2021/11/09 12:46:26;;;;;;;8.20;4.75;;;14.10;99.90;;;;;;4870597;29;20135;-79
2021/11/09 12:49:01;;;;;;;7.65;3.17;;;14.10;99.90;;;;;;4887693;29;20112;-80
2021/11/09 12:51:35;;;;;;;6.85;3.22;;;14.20;99.90;;;;;;4885779;29;20072;-79
2021/11/09 12:54:08;;;;;;;7.88;3.80;;;14.20;99.90;;;;;;4888433;29;20048;-79
2021/11/09 12:56:41;;;;;;;7.95;3.25;;;14.20;99.90;;;;;;4887180;29;20061;-80
2021/11/09 12:59:40;;;;;;;6.65;2.83;;;14.20;99.90;;;;;;4887438;29;20073;-80
2021/11/09 13:02:22;;;;;;;5.85;3.58;;;14.10;99.90;;;;;;4889315;29;20063;-79
2021/11/09 13:04:56;;;;;;;5.00;2.60;;;14.10;99.90;;;;;;4887262;29;20048;-80
2021/11/09 13:10:20;;;;;;;3.92;2.83;;;14.10;99.90;;;;;;4893367;29;20211;-80
2021/11/09 13:12:50;;;;;;;6.18;4.00;;;14.10;99.90;;;;;;4891422;29;20051;-81
2021/11/09 13:15:21;;;;;;;6.47;3.75;;;14.10;99.90;;;;;;4892139;29;20525;-81
2021/11/09 13:17:55;;;;;;;2.45;2.15;;;14.20;99.90;;;;;;4891403;29;20052;-80
2021/11/09 13:20:34;;;;;;;2.72;2.13;;;14.20;99.90;;;;;;4891279;29;20101;-81
2021/11/09 13:23:06;;;;;;;4.88;3.08;;;14.20;99.90;;;;;;4890961;29;20474;-81
2021/11/09 13:25:34;;;;;;;4.85;2.97;;;14.30;99.90;;;;;;4889168;29;20040;-82
2021/11/09 13:28:05;;;;;;;3.40;2.50;;;14.30;99.90;;;;;;4892456;29;20926;-81
2021/11/09 13:30:51;;;;;;;4.47;2.30;;;14.30;99.90;;;;;;4892094;29;20048;-81
2021/11/09 13:33:23;;;;;;;2.55;1.98;;;14.40;99.90;;;;;;4892856;29;20052;-79
2021/11/09 13:35:52;;;;;;;1.63;1.13;;;14.40;99.90;;;;;;4892207;29;20505;-81
2021/11/09 13:38:26;;;;;;;2.08;1.10;;;14.50;99.90;;;;;;4894036;29;20056;-81
2021/11/09 13:40:58;;;;;;;2.05;1.20;;;14.50;99.90;;;;;;4896998;29;20474;-80
2021/11/09 13:43:29;;;;;;;1.30;1.05;;;14.60;99.90;;;;;;4879001;29;20055;-81
2021/11/09 13:46:04;;;;;;;1.42;0.88;;;14.60;99.90;;;;;;4897588;29;20463;-80
2021/11/09 13:48:33;;;;;;;1.50;0.63;;;14.60;99.90;;;;;;4896316;29;20056;-80
2021/11/09 13:51:07;;;;;;;1.42;0.90;;;14.70;99.90;;;;;;4897610;29;20076;-80
2021/11/09 13:53:38;;;;;;;0.73;0.70;;;14.70;99.90;;;;;;4895017;29;20455;-80
2021/11/09 13:56:06;;;;;;;2.25;0.70;;;14.70;99.90;;;;;;4897043;29;20429;-79
2021/11/09 13:58:36;;;;;;;;;;;14.60;99.90;;;;;;4896865;29;20048;-80
2021/11/09 14:01:03;;;;;;;2.42;1.10;;;14.60;99.90;;;;;;4897157;29;20006;-79
2021/11/09 14:03:59;;;;;;;2.53;1.00;;;14.50;99.90;;;;;;4895898;29;20045;-80
2021/11/09 14:09:14;;;;;;;2.20;0.80;;;14.50;99.90;;;;;;4896702;29;20056;-80
2021/11/09 14:14:47;;;;;;;2.70;0.70;;;14.40;99.90;;;;;;4895144;29;20108;-81
2021/11/09 14:17:08;;;;;;;3.63;1.08;;;14.40;99.90;;;;;;4896090;29;20352;-80
2021/11/09 14:19:39;;;;;;;4.32;1.15;;;14.40;99.90;;;;;;4893941;29;20577;-81
2021/11/09 14:22:12;;;;;;;2.58;1.00;;;14.40;99.90;;;;;;4895553;29;20048;-82
2021/11/09 14:24:41;;;;;;;1.30;0.68;;;14.40;99.90;;;;;;4895842;29;20127;-82
2021/11/09 14:27:12;;;;;;;1.38;0.80;;;14.30;99.90;;;;;;4886221;29;20045;-81
2021/11/09 14:29:52;;;;;;;3.38;1.20;;;14.40;99.90;;;;;;4895488;29;20115;-81
2021/11/09 14:32:22;;;;;;;2.92;1.85;;;14.40;99.90;;;;;;4894423;29;20083;-81
2021/11/09 14:35:00;;;;;;;4.07;2.20;;;14.40;99.90;;;;;;4892184;29;20100;-81
2021/11/09 14:37:31;;;;;;;2.17;1.42;;;14.40;99.90;;;;;;4895212;29;20132;-80
2021/11/09 14:40:12;;;;;;;2.15;1.35;;;14.40;99.90;;;;;;4895853;29;20048;-79
2021/11/09 14:45:36;;;;;;;5.07;2.88;;;14.40;99.90;;;;;;4895669;29;20089;-80
2021/11/09 14:48:13;;;;;;;7.10;4.80;;;14.40;99.90;;;;;;4895234;29;20051;-79
2021/11/09 14:53:28;;;;;;;5.85;2.97;;;14.30;99.90;;;;;;4893636;29;20068;-81
2021/11/09 14:56:03;;;;;;;1.73;1.50;;;14.30;99.90;;;;;;4896120;29;20053;-81
2021/11/09 14:58:44;;;;;;;2.67;1.48;;;14.30;99.90;;;;;;4895675;29;20052;-81
2021/11/09 15:01:35;;;;;;;1.83;1.10;;;14.30;99.90;;;;;;4894486;29;20070;-81
2021/11/09 15:04:25;;;;;;;3.22;1.70;;;14.20;99.90;;;;;;4894863;29;20052;-82
2021/11/09 15:31:46;;;;;;;1.75;1.30;;;13.90;99.90;;;;;;4895036;29;20049;-81
2021/11/09 15:34:25;;;;;;;2.15;1.95;;;13.90;99.90;;;;;;4876424;29;20466;-81
2021/11/09 15:39:28;;;;;;;3.10;2.63;;;13.90;99.90;;;;;;4894341;29;20151;-80
2021/11/09 15:41:57;;;;;;;0.93;0.73;;;13.80;99.90;;;;;;4894791;29;20395;-81
2021/11/09 15:44:23;;;;;;;0.60;0.60;;;13.80;99.90;;;;;;4894566;29;20104;-80
2021/11/09 15:46:55;;;;;;;0.55;0.40;;;13.80;99.90;;;;;;4894819;29;20052;-80
2021/11/09 15:49:24;;;;;;;0.85;0.32;;;13.70;99.90;;;;;;4894288;29;20111;-80
2021/11/09 15:51:51;;;;;;;;;;;13.60;99.90;;;;;;4895967;29;20517;-81
2021/11/09 15:54:38;;;;;;;0.75;0.28;;;13.60;99.90;;;;;;4894240;29;19924;-80
2021/11/09 15:57:06;;;;;;;0.65;0.30;;;13.50;99.90;;;;;;4893648;29;20113;-81
2021/11/09 15:59:34;;;;;;;1.23;0.30;;;13.50;99.90;;;;;;4893695;29;20425;-80
2021/11/09 16:02:02;;;;;;;0.60;0.30;;;13.50;99.90;;;;;;4893150;29;20063;-81
2021/11/09 16:04:37;;;;;;;0.95;0.30;;;13.50;99.90;;;;;;4893285;29;20055;-80
2021/11/09 16:07:05;;;;;;;0.82;0.40;;;13.50;99.90;;;;;;4892314;29;20053;-80
2021/11/09 16:09:32;;;;;;;0.70;0.63;;;13.40;99.90;;;;;;4893469;29;20108;-80
2021/11/09 16:11:59;;;;;;;3.38;0.95;;;13.40;99.90;;;;;;4893367;29;20131;-82
2021/11/09 16:14:27;;;;;;;1.50;0.80;;;13.40;99.90;;;;;;4892590;29;20045;-80
2021/11/09 16:16:54;;;;;;;2.55;1.15;;;13.40;99.90;;;;;;4893412;29;20108;-79
2021/11/09 16:19:21;;;;;;;1.20;0.88;;;13.40;99.90;;;;;;4891847;29;20064;-80
2021/11/09 16:21:48;;;;;;;1.60;0.70;;;13.30;99.90;;;;;;4893606;29;20052;-80
2021/11/09 16:24:15;;;;;;;1.80;0.60;;;13.30;99.90;;;;;;4892646;29;20044;-79
2021/11/09 16:26:42;;;;;;;3.25;0.80;;;13.30;99.90;;;;;;4891766;29;20047;-80
2021/11/09 16:29:10;;;;;;;1.98;0.68;;;13.20;99.90;;;;;;4893356;29;20049;-80
2021/11/09 16:31:38;;;;;;;2.15;0.82;;;13.20;99.90;;;;;;4893676;29;20057;-81
2021/11/09 16:34:06;;;;;;;1.13;0.50;;;13.20;99.90;;;;;;4893525;29;20060;-81
2021/11/09 16:36:35;;;;;;;1.05;0.40;;;13.20;99.90;;;;;;4894583;29;20068;-81
2021/11/09 16:39:33;;;;;;;1.23;0.43;;;13.20;99.90;;;;;;4894450;29;20090;-81
2021/11/09 16:41:50;;;;;;;2.05;0.50;;;13.20;99.90;;;;;;4893718;29;20060;-81
2021/11/09 16:44:18;;;;;;;2.85;1.55;;;13.20;99.90;;;;;;4893777;29;20116;-81
2021/11/09 16:46:52;;;;;;;4.10;2.42;;;13.10;99.90;;;;;;4894261;29;20048;-82
2021/11/09 16:52:06;;;;;;;1.83;1.17;;;13.10;99.90;;;;;;4894327;29;20048;-81
2021/11/09 16:54:38;;;;;;;5.28;3.88;;;13.10;99.90;;;;;;4894924;29;20479;-81
2021/11/09 16:57:23;;;;;;;9.65;8.07;;;13.00;99.90;;;;;;4893394;29;20081;-81
2021/11/09 17:03:03;;;;;;;4.82;3.70;;;13.00;99.90;;;;;;4892814;29;20060;-81
2021/11/09 18:21:47;;;;;;;4.30;3.17;;;12.70;99.90;;;;;;4818122;29;20058;-83
2021/11/09 18:24:14;;;;;;;2.28;2.08;;;12.60;99.90;;;;;;4815772;29;20053;-82
2021/11/09 18:26:41;;;;;;;3.38;1.92;;;12.70;99.90;;;;;;4824805;29;20054;-82
2021/11/09 18:29:08;;;;;;;3.00;2.38;;;12.70;99.90;;;;;;4824910;29;20057;-82
2021/11/09 18:31:37;;;;;;;5.28;3.13;;;12.70;99.90;;;;;;4844293;29;20045;-82
2021/11/09 18:34:04;;;;;;;8.48;5.95;;;12.70;99.90;;;;;;4862508;29;20057;-82
2021/11/09 18:36:31;;;;;;;6.53;4.30;;;12.70;99.90;;;;;;4863801;29;20172;-81
2021/11/09 18:38:58;;;;;;;6.75;5.75;;;12.70;99.90;;;;;;4866572;29;20189;-81
2021/11/09 18:41:25;;;;;;;6.00;3.92;;;12.70;99.90;;;;;;4869764;29;20136;-81
2021/11/09 18:43:52;;;;;;;2.05;1.40;;;12.60;99.90;;;;;;4864628;29;20080;-81
2021/11/09 18:46:24;;;;;;;2.50;1.70;;;12.60;99.90;;;;;;4861512;29;20520;-82
2021/11/09 18:48:57;;;;;;;2.60;1.20;;;12.60;99.90;;;;;;4863125;29;20078;-81
2021/11/09 18:51:26;;;;;;;4.30;2.00;;;12.60;99.90;;;;;;4860442;29;20420;-82
2021/11/09 18:53:54;;;;;;;3.65;1.95;;;12.60;99.90;;;;;;4864067;29;20053;-82
2021/11/09 18:56:21;;;;;;;8.30;7.55;;;12.60;99.90;;;;;;4862795;29;20048;-82
2021/11/09 18:58:51;;;;;;;1.98;1.40;;;12.50;99.90;;;;;;4864926;29;20522;-82
2021/11/09 19:01:18;;;;;;;3.00;2.00;;;12.50;99.90;;;;;;4865147;29;20080;-82
2021/11/09 19:03:46;;;;;;;4.68;3.50;;;12.50;99.90;;;;;;4872283;29;20048;-82
2021/11/09 19:06:13;;;;;;;1.40;1.30;;;12.50;99.90;;;;;;4865541;29;20581;-82
2021/11/09 19:08:40;;;;;;;2.50;2.00;;;12.50;99.90;;;;;;4881368;29;20086;-82
2021/11/09 19:11:07;;;;;;;4.90;3.30;;;12.50;99.90;;;;;;4882036;29;20068;-82
2021/11/09 19:13:36;;;;;;;13.55;11.73;;;12.50;99.90;;;;;;4860932;29;20506;-81
2021/11/09 19:16:04;;;;;;;;;;;12.50;99.90;;;;;;4874614;29;20064;-81
2021/11/09 19:18:32;;;;;;;18.77;11.98;;;12.40;99.90;;;;;;4875894;29;19934;-81
2021/11/09 19:20:59;;;;;;;46.88;26.70;;;12.40;99.90;;;;;;4878706;29;20063;-82
2021/11/09 19:23:27;;;;;;;4.57;3.40;;;12.40;99.90;;;;;;4876668;29;20061;-81
2021/11/09 19:25:54;;;;;;;3.20;2.65;;;12.40;99.90;;;;;;4885553;29;20052;-81
2021/11/09 19:28:25;;;;;;;2.45;1.70;;;12.40;99.90;;;;;;4888770;29;20048;-81
2021/11/09 19:30:53;;;;;;;3.95;3.15;;;12.40;99.90;;;;;;4887965;29;21005;-81
2021/11/09 19:33:20;;;;;;;4.40;1.70;;;12.30;99.90;;;;;;4867519;29;20048;-82
2021/11/09 19:35:47;;;;;;;1.90;1.70;;;12.30;99.90;;;;;;4886593;29;20049;-82
2021/11/09 19:38:14;;;;;;;12.27;11.05;;;12.30;99.90;;;;;;4886325;29;20950;-82
2021/11/09 19:40:41;;;;;;;7.28;4.97;;;12.20;99.90;;;;;;4888723;29;20044;-83
2021/11/09 19:43:08;;;;;;;17.88;14.80;;;12.20;99.90;;;;;;4865354;29;20096;-82
2021/11/09 19:45:38;;;;;;;5.50;3.93;;;12.20;99.90;;;;;;4875435;29;20048;-81
2021/11/09 19:48:07;;;;;;;5.35;4.45;;;12.20;99.90;;;;;;4880953;29;20059;-81
2021/11/09 19:50:37;;;;;;;8.77;7.88;;;12.20;99.90;;;;;;4876042;29;20041;-81
2021/11/09 19:53:07;;;;;;;11.93;10.82;;;12.20;99.90;;;;;;4875762;29;20245;-81
2021/11/09 19:55:38;;;;;;;4.57;3.58;;;12.20;99.90;;;;;;4871777;29;20084;-83
2021/11/09 19:58:09;;;;;;;5.78;5.15;;;12.20;99.90;;;;;;4871731;29;20116;-83
2021/11/09 20:00:40;;;;;;;7.85;7.05;;;12.20;99.90;;;;;;4881770;29;20041;-83
2021/11/09 20:03:10;;;;;;;16.40;10.20;;;12.20;99.90;;;;;;4882755;29;20113;-83
2021/11/09 20:05:42;;;;;;;16.17;14.52;;;12.20;99.90;;;;;;4881254;29;20052;-81
2021/11/09 20:08:11;;;;;;;36.10;32.65;;;12.30;99.90;;;;;;4884633;29;20060;-83
2021/11/09 20:10:43;;;;;;;12.10;10.82;;;12.20;99.90;;;;;;4874968;29;20167;-86
2021/11/09 20:13:14;;;;;;;14.77;13.43;;;12.20;99.90;;;;;;4884298;29;20059;-82
2021/11/09 20:15:49;;;;;;;5.78;4.22;;;12.20;99.90;;;;;;4893395;29;20612;-80
2021/11/09 20:18:20;;;;;;;4.07;1.60;;;12.20;99.90;;;;;;4890068;29;20060;-81
2021/11/09 20:20:50;;;;;;;5.85;2.20;;;12.10;99.90;;;;;;4893364;29;20090;-81
2021/11/09 20:23:20;;;;;;;3.58;1.70;;;12.10;99.90;;;;;;4890263;29;20589;-82
2021/11/09 20:25:50;;;;;;;3.78;2.03;;;12.10;99.90;;;;;;4888705;29;20183;-82
2021/11/09 20:28:23;;;;;;;5.10;3.80;;;12.10;99.90;;;;;;4888898;29;20517;-81
2021/11/09 20:30:56;;;;;;;2.17;1.85;;;12.10;99.90;;;;;;4891474;29;20437;-82
2021/11/09 20:33:29;;;;;;;4.13;2.33;;;12.10;99.90;;;;;;4885974;29;20079;-82
2021/11/09 20:35:56;;;;;;;6.53;2.50;;;12.10;99.90;;;;;;4893195;29;20175;-82
2021/11/09 20:38:26;;;;;;;6.57;2.80;;;12.10;99.90;;;;;;4891206;29;20052;-81
2021/11/09 20:40:54;;;;;;;3.70;1.40;;;12.10;99.90;;;;;;4889117;29;20057;-79
2021/11/09 20:43:22;;;;;;;4.55;1.67;;;12.10;99.90;;;;;;4887552;29;20044;-82
2021/11/09 20:45:49;;;;;;;5.67;2.40;;;12.20;99.90;;;;;;4891246;29;20052;-81
2021/11/09 20:48:16;;;;;;;3.42;2.60;;;12.20;99.90;;;;;;4889144;29;20063;-81
2021/11/09 20:50:44;;;;;;;5.22;2.90;;;12.20;99.90;;;;;;4889291;29;20085;-80
2021/11/09 20:53:11;;;;;;;4.90;3.10;;;12.20;99.90;;;;;;4877176;29;20045;-80
2021/11/09 20:55:39;;;;;;;6.05;5.45;;;12.20;99.90;;;;;;4873414;29;20508;-80
2021/11/09 20:58:09;;;;;;;4.78;3.30;;;12.20;99.90;;;;;;4875358;29;20099;-80
2021/11/09 21:00:37;;;;;;;5.22;2.80;;;12.20;99.90;;;;;;4858889;29;20131;-80
2021/11/09 21:03:04;;;;;;;4.32;3.92;;;12.20;99.90;;;;;;4873954;29;20101;-81
2021/11/09 21:05:34;;;;;;;4.30;3.45;;;12.10;99.90;;;;;;4873780;29;20057;-81
2021/11/09 21:08:01;;;;;;;3.40;2.80;;;12.10;99.90;;;;;;4876598;29;20116;-80
2021/11/09 21:10:31;;;;;;;4.77;2.90;;;12.10;99.90;;;;;;4881270;29;20119;-80
2021/11/09 21:13:19;;;;;;;7.22;3.50;;;12.20;99.90;;;;;;4875084;29;20111;-80
2021/11/09 21:18:34;;;;;;;8.43;7.20;;;12.20;99.90;;;;;;4874366;29;19998;-80
2021/11/09 21:21:07;;;;;;;7.88;7.07;;;12.10;99.90;;;;;;4860880;29;20701;-80
2021/11/09 21:23:44;;;;;;;12.25;10.90;;;12.20;99.90;;;;;;4875180;29;20068;-80
2021/11/09 21:26:11;;;;;;;13.80;10.45;;;12.20;99.90;;;;;;4877182;29;20849;-80
2021/11/09 21:28:43;;;;;;;11.65;8.02;;;12.20;99.90;;;;;;4878789;29;20528;-80
2021/11/09 21:36:36;;;;;;;12.13;10.70;;;12.20;99.90;;;;;;4872945;29;20522;-81
2021/11/09 21:39:08;;;;;;;15.95;11.10;;;12.20;99.90;;;;;;4877232;29;20049;-80
2021/11/09 21:41:35;;;;;;;29.65;10.00;;;12.20;99.90;;;;;;4880674;29;20135;-80
2021/11/09 21:44:05;;;;;;;14.82;10.07;;;12.20;99.90;;;;;;4885099;29;20592;-80
2021/11/09 21:46:34;;;;;;;39.83;12.05;;;12.20;99.90;;;;;;4881638;29;20720;-80
2021/11/09 21:49:01;;;;;;;26.10;12.65;;;12.20;99.90;;;;;;4883027;29;20076;-80
2021/11/09 21:51:28;;;;;;;31.88;13.30;;;12.20;99.90;;;;;;4868408;29;20053;-81
2021/11/09 21:53:55;;;;;;;13.05;11.23;;;12.20;99.90;;;;;;4875564;29;20045;-80
2021/11/09 21:56:22;;;;;;;31.08;13.98;;;12.20;99.90;;;;;;4875537;29;20109;-80
2021/11/09 21:58:49;;;;;;;19.77;12.00;;;12.20;99.90;;;;;;4875536;29;20048;-81
2021/11/09 22:01:17;;;;;;;14.57;11.80;;;12.20;99.90;;;;;;4860490;29;20140;-81
2021/11/09 22:03:44;;;;;;;71.65;11.57;;;12.20;99.90;;;;;;4873398;29;20049;-81
2021/11/09 22:06:11;;;;;;;64.28;12.80;;;12.20;99.90;;;;;;4876940;29;20397;-82
2021/11/09 22:08:38;;;;;;;134.63;15.93;;;12.20;99.90;;;;;;4897247;29;20147;-82
2021/11/09 22:11:05;;;;;;;222.35;15.27;;;12.20;99.90;;;;;;4893816;29;20545;-81
2021/11/09 22:13:32;;;;;;;101.22;13.80;;;12.20;99.90;;;;;;4895062;29;20048;-82
2021/11/09 22:15:59;;;;;;;145.88;11.48;;;12.10;99.90;;;;;;4894938;29;20096;-82
2021/11/09 22:18:26;;;;;;;144.15;12.55;;;12.10;99.90;;;;;;4894036;29;20044;-82
2021/11/09 22:20:53;;;;;;;247.27;17.17;;;12.10;99.90;;;;;;4895665;29;20052;-81
2021/11/09 22:23:20;;;;;;;269.27;17.27;;;12.10;99.90;;;;;;4894078;29;20083;-81
2021/11/09 22:25:47;;;;;;;421.33;19.45;;;12.00;99.90;;;;;;4895145;29;20052;-82
2021/11/09 22:28:14;;;;;;;336.13;17.35;;;12.00;99.90;;;;;;4892169;29;20087;-81
2021/11/09 22:30:42;;;;;;;371.95;18.17;;;12.00;99.90;;;;;;4895803;29;20045;-81
2021/11/09 22:33:09;;;;;;;305.38;19.10;;;12.00;99.90;;;;;;4894894;29;20048;-81
2021/11/09 22:35:36;;;;;;;162.95;13.88;;;12.00;99.90;;;;;;4895142;29;20513;-81
2021/11/09 22:38:04;;;;;;;110.22;10.82;;;11.90;99.90;;;;;;4895108;29;20044;-81
2021/11/09 22:40:31;;;;;;;241.38;14.27;;;11.90;99.90;;;;;;4895041;29;20068;-80
2021/11/09 22:42:58;;;;;;;194.07;13.00;;;11.90;99.90;;;;;;4894832;29;20101;-81
2021/11/09 22:45:26;;;;;;;149.18;10.63;;;11.90;99.90;;;;;;4894839;29;20076;-81
2021/11/09 22:47:53;;;;;;;98.90;8.70;;;11.90;99.90;;;;;;4892641;29;20052;-81
2021/11/09 22:50:23;;;;;;;72.03;8.90;;;11.80;99.90;;;;;;4895787;29;20048;-81
2021/11/09 22:52:51;;;;;;;28.77;8.02;;;11.90;99.90;;;;;;4896166;29;20040;-81
2021/11/09 22:55:18;;;;;;;19.25;7.35;;;11.90;99.90;;;;;;4895627;29;20108;-81
2021/11/09 22:57:45;;;;;;;20.63;7.80;;;11.90;99.90;;;;;;4896113;29;20560;-81
